FCK2FT EDDN-EDDN
Flight info
| Callsign | FCK2FT |
|---|---|
| Flight time | 1h 11m |
| Altitude | 10000 |
| Route | ERL2G ERL DCT DN429 DCT DN439 DCT DN437 DCT OSNUB |
| Aircraft | BE20/L-SBGRY/S |
Departure
| Time | 2026-05-06 18:50 |
|---|---|
| Airport | Nuremberg Airport (EDDN) |
Arrival
| Time | 2026-05-06 20:02 |
|---|---|
| Airport | Nuremberg Airport (EDDN) |
| Time | Latitude | Longitude | Altitude | Speed | Heading |
|---|---|---|---|---|---|
| 2026-05-06 18:39 | 49.49438 | 11.06871 | 1021 ft | 0 kts | 278° |
| 2026-05-06 18:45 | 49.49439 | 11.06865 | 1021 ft | 0 kts | 278° |
| 2026-05-06 18:45 | 49.49438 | 11.06868 | 1021 ft | 2 kts | 278° |
| 2026-05-06 18:45 | 49.49436 | 11.06892 | 1022 ft | 1 kts | 278° |
| 2026-05-06 18:45 | 49.49446 | 11.06892 | 1022 ft | 6 kts | 32° |
| 2026-05-06 18:46 | 49.49520 | 11.06941 | 1022 ft | 10 kts | 68° |
| 2026-05-06 18:46 | 49.49517 | 11.06990 | 1022 ft | 0 kts | 102° |
| 2026-05-06 18:46 | 49.49513 | 11.07038 | 1022 ft | 9 kts | 98° |
| 2026-05-06 18:46 | 49.49504 | 11.07162 | 1022 ft | 12 kts | 78° |
| 2026-05-06 18:47 | 49.49583 | 11.07204 | 1021 ft | 13 kts | 3° |
| 2026-05-06 18:47 | 49.49634 | 11.07278 | 1020 ft | 13 kts | 97° |
| 2026-05-06 18:47 | 49.49614 | 11.07448 | 1021 ft | 20 kts | 103° |
| 2026-05-06 18:47 | 49.49594 | 11.07682 | 1022 ft | 24 kts | 99° |
| 2026-05-06 18:48 | 49.49566 | 11.07967 | 1020 ft | 30 kts | 98° |
| 2026-05-06 18:48 | 49.49533 | 11.08291 | 1024 ft | 19 kts | 99° |
| 2026-05-06 18:48 | 49.49530 | 11.08336 | 1025 ft | 0 kts | 75° |
| 2026-05-06 18:48 | 49.49552 | 11.08348 | 1025 ft | 9 kts | 8° |
| 2026-05-06 18:49 | 49.49623 | 11.08401 | 1029 ft | 14 kts | 56° |
| 2026-05-06 18:49 | 49.49684 | 11.08529 | 1031 ft | 7 kts | 48° |
| 2026-05-06 18:49 | 49.49747 | 11.08568 | 1032 ft | 13 kts | 352° |
| 2026-05-06 18:49 | 49.49806 | 11.08459 | 1031 ft | 9 kts | 279° |
| 2026-05-06 18:50 | 49.49820 | 11.08313 | 1029 ft | 46 kts | 278° |
| 2026-05-06 18:50 | 49.49905 | 11.07451 | 1021 ft | 115 kts | 278° |
| 2026-05-06 18:50 | 49.50038 | 11.06034 | 1252 ft | 154 kts | 277° |
| 2026-05-06 18:50 | 49.50152 | 11.04336 | 1861 ft | 158 kts | 263° |
| 2026-05-06 18:51 | 49.49494 | 11.03079 | 2687 ft | 163 kts | 202° |
| 2026-05-06 18:51 | 49.48320 | 11.03253 | 3128 ft | 187 kts | 154° |
| 2026-05-06 18:51 | 49.47145 | 11.04369 | 3311 ft | 209 kts | 147° |
| 2026-05-06 18:51 | 49.45911 | 11.05709 | 3385 ft | 224 kts | 144° |
| 2026-05-06 18:52 | 49.45014 | 11.07675 | 3420 ft | 232 kts | 109° |
| 2026-05-06 18:52 | 49.44591 | 11.10071 | 3442 ft | 239 kts | 103° |
| 2026-05-06 18:52 | 49.44270 | 11.12586 | 3445 ft | 242 kts | 99° |
| 2026-05-06 18:52 | 49.44048 | 11.15157 | 3445 ft | 244 kts | 96° |
| 2026-05-06 18:53 | 49.43891 | 11.17755 | 3460 ft | 244 kts | 95° |
| 2026-05-06 18:53 | 49.43760 | 11.20354 | 3465 ft | 244 kts | 95° |
| 2026-05-06 18:53 | 49.43642 | 11.22950 | 3464 ft | 243 kts | 94° |
| 2026-05-06 18:53 | 49.43522 | 11.25536 | 3454 ft | 242 kts | 94° |
| 2026-05-06 18:54 | 49.43399 | 11.28114 | 3451 ft | 242 kts | 94° |
| 2026-05-06 18:54 | 49.43294 | 11.30661 | 3448 ft | 227 kts | 88° |
| 2026-05-06 18:54 | 49.43836 | 11.32699 | 3446 ft | 204 kts | 42° |
| 2026-05-06 18:54 | 49.45065 | 11.33571 | 3461 ft | 192 kts | 11° |
| 2026-05-06 18:55 | 49.46369 | 11.33840 | 3456 ft | 186 kts | 351° |
| 2026-05-06 18:55 | 49.47427 | 11.32864 | 3463 ft | 180 kts | 303° |
| 2026-05-06 18:55 | 49.47719 | 11.31093 | 3465 ft | 172 kts | 271° |
| 2026-05-06 18:55 | 49.47768 | 11.29088 | 3476 ft | 202 kts | 275° |
| 2026-05-06 18:56 | 49.47948 | 11.26848 | 3456 ft | 214 kts | 277° |
| 2026-05-06 18:56 | 49.48136 | 11.24555 | 3144 ft | 214 kts | 283° |
| 2026-05-06 18:56 | 49.48481 | 11.22384 | 2829 ft | 204 kts | 281° |
| 2026-05-06 18:56 | 49.48723 | 11.20251 | 2508 ft | 203 kts | 278° |
| 2026-05-06 18:57 | 49.48922 | 11.18145 | 2190 ft | 201 kts | 278° |
| 2026-05-06 18:57 | 49.49105 | 11.16029 | 1890 ft | 199 kts | 278° |
| 2026-05-06 18:57 | 49.49281 | 11.13918 | 1634 ft | 199 kts | 278° |
| 2026-05-06 18:57 | 49.49466 | 11.11800 | 1478 ft | 197 kts | 279° |
| 2026-05-06 18:58 | 49.49656 | 11.09809 | 1913 ft | 181 kts | 279° |
| 2026-05-06 18:58 | 49.49822 | 11.07956 | 2713 ft | 172 kts | 271° |
| 2026-05-06 18:58 | 49.49307 | 11.06279 | 3123 ft | 190 kts | 219° |
| 2026-05-06 18:58 | 49.47991 | 11.05745 | 3308 ft | 212 kts | 172° |
| 2026-05-06 18:59 | 49.46625 | 11.06744 | 3396 ft | 225 kts | 147° |
| 2026-05-06 18:59 | 49.45321 | 11.08169 | 3427 ft | 234 kts | 144° |
| 2026-05-06 18:59 | 49.44078 | 11.09746 | 3434 ft | 236 kts | 131° |
| 2026-05-06 18:59 | 49.43430 | 11.12048 | 3453 ft | 239 kts | 103° |
| 2026-05-06 19:00 | 49.43101 | 11.14571 | 3450 ft | 243 kts | 100° |
| 2026-05-06 19:00 | 49.42824 | 11.17141 | 3453 ft | 244 kts | 99° |
| 2026-05-06 19:00 | 49.42566 | 11.19724 | 3462 ft | 245 kts | 98° |
| 2026-05-06 19:00 | 49.42400 | 11.21446 | 3462 ft | 246 kts | 98° |
| 2026-05-06 19:01 | 49.42066 | 11.24927 | 3464 ft | 247 kts | 98° |
| 2026-05-06 19:01 | 49.41816 | 11.27530 | 3457 ft | 246 kts | 98° |
| 2026-05-06 19:01 | 49.41564 | 11.30128 | 3455 ft | 246 kts | 98° |
| 2026-05-06 19:01 | 49.41312 | 11.32723 | 3455 ft | 245 kts | 98° |
| 2026-05-06 19:02 | 49.41123 | 11.35274 | 3456 ft | 242 kts | 85° |
| 2026-05-06 19:02 | 49.41772 | 11.37602 | 3468 ft | 242 kts | 45° |
| 2026-05-06 19:02 | 49.43230 | 11.38767 | 3468 ft | 240 kts | 6° |
| 2026-05-06 19:02 | 49.44826 | 11.38244 | 3460 ft | 237 kts | 327° |
| 2026-05-06 19:03 | 49.46129 | 11.36713 | 3453 ft | 235 kts | 318° |
| 2026-05-06 19:03 | 49.47047 | 11.34759 | 3458 ft | 221 kts | 293° |
| 2026-05-06 19:03 | 49.47526 | 11.32551 | 3459 ft | 216 kts | 282° |
| 2026-05-06 19:03 | 49.47799 | 11.30287 | 3461 ft | 215 kts | 279° |
| 2026-05-06 19:04 | 49.48022 | 11.28009 | 3460 ft | 216 kts | 278° |
| 2026-05-06 19:04 | 49.48228 | 11.25698 | 3220 ft | 218 kts | 277° |
| 2026-05-06 19:04 | 49.48419 | 11.23470 | 2930 ft | 209 kts | 277° |
| 2026-05-06 19:04 | 49.48602 | 11.21285 | 2623 ft | 203 kts | 277° |
| 2026-05-06 19:05 | 49.48783 | 11.19149 | 2348 ft | 200 kts | 277° |
| 2026-05-06 19:05 | 49.48973 | 11.17043 | 2043 ft | 196 kts | 278° |
| 2026-05-06 19:05 | 49.49179 | 11.14975 | 1778 ft | 195 kts | 279° |
| 2026-05-06 19:05 | 49.49384 | 11.12911 | 1549 ft | 195 kts | 279° |
| 2026-05-06 19:06 | 49.49582 | 11.10877 | 1588 ft | 184 kts | 279° |
| 2026-05-06 19:06 | 49.49777 | 11.09005 | 1995 ft | 174 kts | 279° |
| 2026-05-06 19:06 | 49.49695 | 11.07242 | 2756 ft | 171 kts | 239° |
| 2026-05-06 19:06 | 49.48693 | 11.06208 | 3138 ft | 194 kts | 190° |
| 2026-05-06 19:07 | 49.47332 | 11.06698 | 3311 ft | 213 kts | 153° |
| 2026-05-06 19:07 | 49.46448 | 11.07511 | 3380 ft | 224 kts | 148° |
| 2026-05-06 19:07 | 49.44688 | 11.09329 | 3426 ft | 236 kts | 146° |
| 2026-05-06 19:07 | 49.43488 | 11.11025 | 3441 ft | 239 kts | 120° |
| 2026-05-06 19:08 | 49.42978 | 11.13443 | 3445 ft | 241 kts | 102° |
| 2026-05-06 19:08 | 49.42658 | 11.15982 | 3446 ft | 243 kts | 99° |
| 2026-05-06 19:08 | 49.42382 | 11.18561 | 3453 ft | 245 kts | 99° |
| 2026-05-06 19:08 | 49.42127 | 11.21122 | 3460 ft | 246 kts | 98° |
| 2026-05-06 19:09 | 49.41875 | 11.23726 | 3462 ft | 246 kts | 98° |
| 2026-05-06 19:09 | 49.41622 | 11.26322 | 3456 ft | 246 kts | 98° |
| 2026-05-06 19:09 | 49.41367 | 11.28928 | 3452 ft | 246 kts | 98° |
| 2026-05-06 19:09 | 49.41114 | 11.31520 | 3449 ft | 246 kts | 98° |
| 2026-05-06 19:10 | 49.40860 | 11.34113 | 3454 ft | 245 kts | 98° |
| 2026-05-06 19:10 | 49.40605 | 11.36700 | 3456 ft | 245 kts | 98° |
| 2026-05-06 19:10 | 49.40349 | 11.39296 | 3462 ft | 246 kts | 98° |
| 2026-05-06 19:10 | 49.40090 | 11.41892 | 3464 ft | 246 kts | 98° |
| 2026-05-06 19:11 | 49.40009 | 11.44414 | 3461 ft | 243 kts | 76° |
| 2026-05-06 19:11 | 49.40880 | 11.46574 | 3467 ft | 242 kts | 37° |
| 2026-05-06 19:11 | 49.42435 | 11.47408 | 3467 ft | 240 kts | 357° |
| 2026-05-06 19:11 | 49.43972 | 11.46555 | 3464 ft | 237 kts | 322° |
| 2026-05-06 19:12 | 49.45233 | 11.44929 | 3444 ft | 237 kts | 317° |
| 2026-05-06 19:12 | 49.46153 | 11.42996 | 3442 ft | 217 kts | 292° |
| 2026-05-06 19:12 | 49.46663 | 11.40879 | 3448 ft | 211 kts | 285° |
| 2026-05-06 19:12 | 49.46966 | 11.38681 | 3446 ft | 210 kts | 280° |
| 2026-05-06 19:13 | 49.47194 | 11.36476 | 3448 ft | 208 kts | 278° |
| 2026-05-06 19:13 | 49.47399 | 11.34272 | 3453 ft | 208 kts | 278° |
| 2026-05-06 19:13 | 49.47595 | 11.32052 | 3459 ft | 211 kts | 278° |
| 2026-05-06 19:13 | 49.47790 | 11.29802 | 3461 ft | 213 kts | 278° |
| 2026-05-06 19:14 | 49.47986 | 11.27536 | 3446 ft | 214 kts | 278° |
| 2026-05-06 19:14 | 49.48181 | 11.25275 | 3164 ft | 211 kts | 278° |
| 2026-05-06 19:14 | 49.48376 | 11.23049 | 2889 ft | 208 kts | 278° |
| 2026-05-06 19:14 | 49.48574 | 11.20854 | 2583 ft | 207 kts | 278° |
| 2026-05-06 19:15 | 49.48789 | 11.18705 | 2282 ft | 206 kts | 279° |
| 2026-05-06 19:15 | 49.49006 | 11.16536 | 1968 ft | 204 kts | 279° |
| 2026-05-06 19:15 | 49.49214 | 11.14388 | 1698 ft | 204 kts | 279° |
| 2026-05-06 19:15 | 49.49428 | 11.12233 | 1460 ft | 204 kts | 279° |
| 2026-05-06 19:16 | 49.49634 | 11.10124 | 1518 ft | 190 kts | 280° |
| 2026-05-06 19:16 | 49.49826 | 11.08205 | 1911 ft | 175 kts | 279° |
| 2026-05-06 19:16 | 49.50011 | 11.06412 | 2552 ft | 164 kts | 278° |
| 2026-05-06 19:16 | 49.49740 | 11.04784 | 3044 ft | 173 kts | 227° |
| 2026-05-06 19:17 | 49.48559 | 11.04083 | 3275 ft | 202 kts | 177° |
| 2026-05-06 19:17 | 49.47207 | 11.04913 | 3380 ft | 220 kts | 149° |
| 2026-05-06 19:17 | 49.45897 | 11.06267 | 3426 ft | 233 kts | 145° |
| 2026-05-06 19:17 | 49.44733 | 11.07946 | 3438 ft | 237 kts | 120° |
| 2026-05-06 19:18 | 49.44231 | 11.10361 | 3442 ft | 240 kts | 102° |
| 2026-05-06 19:18 | 49.43917 | 11.12899 | 3443 ft | 243 kts | 99° |
| 2026-05-06 19:18 | 49.43645 | 11.15472 | 3442 ft | 245 kts | 98° |
| 2026-05-06 19:18 | 49.43388 | 11.18061 | 3448 ft | 245 kts | 98° |
| 2026-05-06 19:19 | 49.43138 | 11.20659 | 3453 ft | 246 kts | 98° |
| 2026-05-06 19:19 | 49.42891 | 11.23261 | 3460 ft | 246 kts | 98° |
| 2026-05-06 19:19 | 49.42641 | 11.25863 | 3456 ft | 246 kts | 98° |
| 2026-05-06 19:19 | 49.42474 | 11.28421 | 3449 ft | 242 kts | 83° |
| 2026-05-06 19:20 | 49.43173 | 11.30677 | 3449 ft | 236 kts | 43° |
| 2026-05-06 19:20 | 49.44620 | 11.31684 | 3457 ft | 231 kts | 2° |
| 2026-05-06 19:20 | 49.46104 | 11.30997 | 3460 ft | 218 kts | 320° |
| 2026-05-06 19:20 | 49.46940 | 11.29203 | 3457 ft | 200 kts | 297° |
| 2026-05-06 19:21 | 49.47508 | 11.27287 | 3406 ft | 196 kts | 292° |
| 2026-05-06 19:21 | 49.48011 | 11.25302 | 3128 ft | 202 kts | 290° |
| 2026-05-06 19:21 | 49.48422 | 11.23238 | 2863 ft | 202 kts | 282° |
| 2026-05-06 19:21 | 49.48673 | 11.21107 | 2577 ft | 203 kts | 279° |
| 2026-05-06 19:22 | 49.48812 | 11.19685 | 2399 ft | 203 kts | 278° |
| 2026-05-06 19:22 | 49.49063 | 11.16835 | 2003 ft | 203 kts | 278° |
| 2026-05-06 19:22 | 49.49244 | 11.14686 | 1730 ft | 203 kts | 277° |
| 2026-05-06 19:22 | 49.49427 | 11.12531 | 1483 ft | 203 kts | 278° |
| 2026-05-06 19:23 | 49.49610 | 11.10482 | 1610 ft | 183 kts | 278° |
| 2026-05-06 19:23 | 49.49769 | 11.08591 | 2093 ft | 174 kts | 278° |
| 2026-05-06 19:23 | 49.49871 | 11.07378 | 2637 ft | 174 kts | 278° |
| 2026-05-06 19:23 | 49.50034 | 11.05446 | 3092 ft | 191 kts | 277° |
| 2026-05-06 19:24 | 49.49806 | 11.03395 | 3282 ft | 209 kts | 237° |
| 2026-05-06 19:24 | 49.48601 | 11.02075 | 3381 ft | 225 kts | 194° |
| 2026-05-06 19:24 | 49.47039 | 11.02353 | 3426 ft | 235 kts | 154° |
| 2026-05-06 19:24 | 49.45652 | 11.03704 | 3443 ft | 239 kts | 145° |
| 2026-05-06 19:25 | 49.43889 | 11.05778 | 3444 ft | 240 kts | 135° |
| 2026-05-06 19:25 | 49.43302 | 11.07247 | 3453 ft | 241 kts | 109° |
| 2026-05-06 19:25 | 49.42875 | 11.09705 | 3459 ft | 243 kts | 102° |
| 2026-05-06 19:25 | 49.42544 | 11.12258 | 3456 ft | 244 kts | 100° |
| 2026-05-06 19:26 | 49.42246 | 11.14831 | 3456 ft | 245 kts | 99° |
| 2026-05-06 19:26 | 49.41959 | 11.17410 | 3454 ft | 245 kts | 99° |
| 2026-05-06 19:26 | 49.41680 | 11.19959 | 3463 ft | 246 kts | 99° |
| 2026-05-06 19:26 | 49.41394 | 11.22588 | 3464 ft | 246 kts | 99° |
| 2026-05-06 19:27 | 49.41114 | 11.25173 | 3455 ft | 245 kts | 99° |
| 2026-05-06 19:27 | 49.40832 | 11.27758 | 3457 ft | 245 kts | 99° |
| 2026-05-06 19:27 | 49.40551 | 11.30308 | 3456 ft | 245 kts | 99° |
| 2026-05-06 19:27 | 49.40268 | 11.32890 | 3452 ft | 245 kts | 99° |
| 2026-05-06 19:28 | 49.39984 | 11.35469 | 3454 ft | 245 kts | 99° |
| 2026-05-06 19:28 | 49.39700 | 11.38049 | 3456 ft | 245 kts | 99° |
| 2026-05-06 19:28 | 49.39426 | 11.40628 | 3454 ft | 243 kts | 95° |
| 2026-05-06 19:28 | 49.39791 | 11.43091 | 3454 ft | 241 kts | 56° |
| 2026-05-06 19:29 | 49.41087 | 11.44620 | 3455 ft | 240 kts | 17° |
| 2026-05-06 19:29 | 49.42719 | 11.44530 | 3456 ft | 239 kts | 337° |
| 2026-05-06 19:29 | 49.44083 | 11.43145 | 3456 ft | 232 kts | 321° |
| 2026-05-06 19:29 | 49.45306 | 11.41574 | 3456 ft | 228 kts | 319° |
| 2026-05-06 19:30 | 49.46297 | 11.39753 | 3452 ft | 221 kts | 294° |
| 2026-05-06 19:30 | 49.46876 | 11.37565 | 3451 ft | 222 kts | 290° |
| 2026-05-06 19:30 | 49.47274 | 11.35314 | 3452 ft | 222 kts | 281° |
| 2026-05-06 19:30 | 49.47541 | 11.32960 | 3456 ft | 224 kts | 279° |
| 2026-05-06 19:31 | 49.47766 | 11.30594 | 3456 ft | 225 kts | 278° |
| 2026-05-06 19:31 | 49.47975 | 11.28241 | 3454 ft | 216 kts | 278° |
| 2026-05-06 19:31 | 49.48360 | 11.23760 | 2925 ft | 207 kts | 278° |
| 2026-05-06 19:32 | 49.48546 | 11.21580 | 2630 ft | 205 kts | 278° |
| 2026-05-06 19:32 | 49.48739 | 11.19421 | 2349 ft | 203 kts | 279° |
| 2026-05-06 19:32 | 49.48952 | 11.17289 | 2053 ft | 200 kts | 279° |
| 2026-05-06 19:32 | 49.49160 | 11.15207 | 1796 ft | 199 kts | 279° |
| 2026-05-06 19:33 | 49.49364 | 11.13100 | 1541 ft | 199 kts | 280° |
| 2026-05-06 19:33 | 49.49564 | 11.11010 | 1485 ft | 196 kts | 279° |
| 2026-05-06 19:33 | 49.49766 | 11.08998 | 2303 ft | 183 kts | 279° |
| 2026-05-06 19:33 | 49.49958 | 11.07118 | 3222 ft | 174 kts | 279° |
| 2026-05-06 19:34 | 49.50150 | 11.05319 | 4118 ft | 167 kts | 279° |
| 2026-05-06 19:34 | 49.50647 | 11.03776 | 4972 ft | 165 kts | 319° |
| 2026-05-06 19:34 | 49.51728 | 11.03249 | 5748 ft | 170 kts | 7° |
| 2026-05-06 19:34 | 49.52761 | 11.04053 | 6493 ft | 173 kts | 42° |
| 2026-05-06 19:35 | 49.53717 | 11.05421 | 6747 ft | 208 kts | 44° |
| 2026-05-06 19:35 | 49.54852 | 11.07048 | 6765 ft | 235 kts | 43° |
| 2026-05-06 19:35 | 49.56121 | 11.08771 | 6767 ft | 249 kts | 41° |
| 2026-05-06 19:35 | 49.57459 | 11.10527 | 6763 ft | 256 kts | 40° |
| 2026-05-06 19:36 | 49.58832 | 11.12298 | 6765 ft | 259 kts | 40° |
| 2026-05-06 19:36 | 49.60224 | 11.14086 | 6773 ft | 261 kts | 40° |
| 2026-05-06 19:36 | 49.61625 | 11.15882 | 6759 ft | 262 kts | 40° |
| 2026-05-06 19:36 | 49.63026 | 11.17679 | 6756 ft | 262 kts | 40° |
| 2026-05-06 19:37 | 49.64424 | 11.19473 | 6754 ft | 261 kts | 40° |
| 2026-05-06 19:37 | 49.65818 | 11.21263 | 6755 ft | 261 kts | 40° |
| 2026-05-06 19:37 | 49.67216 | 11.23061 | 6763 ft | 261 kts | 40° |
| 2026-05-06 19:37 | 49.68612 | 11.24856 | 6757 ft | 262 kts | 40° |
| 2026-05-06 19:38 | 49.69993 | 11.26635 | 6758 ft | 262 kts | 40° |
| 2026-05-06 19:38 | 49.71395 | 11.28440 | 6754 ft | 262 kts | 40° |
| 2026-05-06 19:38 | 49.72795 | 11.30246 | 6751 ft | 262 kts | 40° |
| 2026-05-06 19:38 | 49.74196 | 11.32055 | 6752 ft | 262 kts | 40° |
| 2026-05-06 19:39 | 49.75595 | 11.33862 | 6750 ft | 262 kts | 40° |
| 2026-05-06 19:39 | 49.76992 | 11.35667 | 6754 ft | 261 kts | 40° |
| 2026-05-06 19:39 | 49.78385 | 11.37467 | 6748 ft | 261 kts | 40° |
| 2026-05-06 19:39 | 49.79776 | 11.39268 | 6753 ft | 261 kts | 40° |
| 2026-05-06 19:40 | 49.81167 | 11.41071 | 6750 ft | 261 kts | 40° |
| 2026-05-06 19:40 | 49.82558 | 11.42875 | 6754 ft | 261 kts | 40° |
| 2026-05-06 19:40 | 49.83933 | 11.44659 | 6753 ft | 261 kts | 40° |
| 2026-05-06 19:40 | 49.85310 | 11.46448 | 6752 ft | 261 kts | 40° |
| 2026-05-06 19:41 | 49.86705 | 11.48261 | 6754 ft | 262 kts | 40° |
| 2026-05-06 19:41 | 49.88102 | 11.50078 | 6749 ft | 262 kts | 40° |
| 2026-05-06 19:41 | 49.89500 | 11.51898 | 6746 ft | 262 kts | 40° |
| 2026-05-06 19:41 | 49.90895 | 11.53716 | 6750 ft | 262 kts | 40° |
| 2026-05-06 19:42 | 49.92292 | 11.55536 | 6748 ft | 262 kts | 40° |
| 2026-05-06 19:42 | 49.93674 | 11.57338 | 6745 ft | 262 kts | 40° |
| 2026-05-06 19:42 | 49.95067 | 11.59158 | 6747 ft | 262 kts | 40° |
| 2026-05-06 19:42 | 49.96464 | 11.60982 | 6749 ft | 262 kts | 40° |
| 2026-05-06 19:43 | 49.97826 | 11.62763 | 6746 ft | 250 kts | 40° |
| 2026-05-06 19:43 | 49.99098 | 11.64428 | 6743 ft | 230 kts | 40° |
| 2026-05-06 19:43 | 50.00292 | 11.65989 | 6745 ft | 223 kts | 40° |
| 2026-05-06 19:43 | 50.01488 | 11.67552 | 6757 ft | 226 kts | 40° |
| 2026-05-06 19:44 | 50.02565 | 11.69305 | 6750 ft | 225 kts | 62° |
| 2026-05-06 19:44 | 50.02890 | 11.71635 | 6766 ft | 223 kts | 97° |
| 2026-05-06 19:44 | 50.02330 | 11.73830 | 6763 ft | 220 kts | 131° |
| 2026-05-06 19:44 | 50.01099 | 11.75149 | 6756 ft | 216 kts | 164° |
| 2026-05-06 19:45 | 49.99644 | 11.75216 | 6746 ft | 213 kts | 196° |
| 2026-05-06 19:45 | 49.98391 | 11.74061 | 6744 ft | 212 kts | 227° |
| 2026-05-06 19:45 | 49.97728 | 11.72042 | 6747 ft | 214 kts | 258° |
| 2026-05-06 19:45 | 49.97803 | 11.69748 | 6750 ft | 214 kts | 278° |
| 2026-05-06 19:46 | 49.98066 | 11.67466 | 6748 ft | 215 kts | 278° |
| 2026-05-06 19:46 | 49.98332 | 11.65172 | 6746 ft | 216 kts | 278° |
| 2026-05-06 19:46 | 49.98599 | 11.62869 | 6751 ft | 217 kts | 278° |
| 2026-05-06 19:46 | 49.98866 | 11.60562 | 6753 ft | 217 kts | 278° |
| 2026-05-06 19:47 | 49.99133 | 11.58248 | 6743 ft | 217 kts | 278° |
| 2026-05-06 19:47 | 49.99615 | 11.56053 | 6741 ft | 218 kts | 303° |
| 2026-05-06 19:47 | 50.00828 | 11.54663 | 6757 ft | 224 kts | 341° |
| 2026-05-06 19:47 | 50.02347 | 11.54725 | 6755 ft | 227 kts | 21° |
| 2026-05-06 19:48 | 50.03535 | 11.56281 | 6757 ft | 227 kts | 61° |
| 2026-05-06 19:48 | 50.03833 | 11.58636 | 6759 ft | 225 kts | 101° |
| 2026-05-06 19:48 | 50.03141 | 11.60734 | 6753 ft | 219 kts | 139° |
| 2026-05-06 19:48 | 50.01831 | 11.61849 | 6755 ft | 214 kts | 161° |
| 2026-05-06 19:49 | 50.00363 | 11.62680 | 6752 ft | 233 kts | 161° |
| 2026-05-06 19:49 | 49.98798 | 11.63547 | 6750 ft | 243 kts | 162° |
| 2026-05-06 19:49 | 49.97190 | 11.64432 | 6744 ft | 247 kts | 162° |
| 2026-05-06 19:49 | 49.95565 | 11.65328 | 6742 ft | 249 kts | 162° |
| 2026-05-06 19:50 | 49.93933 | 11.66223 | 6740 ft | 249 kts | 162° |
| 2026-05-06 19:50 | 49.92318 | 11.67098 | 6742 ft | 247 kts | 164° |
| 2026-05-06 19:50 | 49.90631 | 11.67360 | 6747 ft | 244 kts | 180° |
| 2026-05-06 19:50 | 49.88929 | 11.67316 | 6747 ft | 246 kts | 182° |
| 2026-05-06 19:51 | 49.87212 | 11.67206 | 6745 ft | 247 kts | 184° |
| 2026-05-06 19:51 | 49.85495 | 11.67070 | 6744 ft | 247 kts | 184° |
| 2026-05-06 19:51 | 49.83782 | 11.66924 | 6742 ft | 247 kts | 184° |
| 2026-05-06 19:51 | 49.82103 | 11.66574 | 6744 ft | 242 kts | 197° |
| 2026-05-06 19:52 | 49.80505 | 11.65716 | 6747 ft | 244 kts | 201° |
| 2026-05-06 19:52 | 49.78919 | 11.64749 | 6742 ft | 245 kts | 202° |
| 2026-05-06 19:52 | 49.77337 | 11.63742 | 6752 ft | 246 kts | 203° |
| 2026-05-06 19:52 | 49.75751 | 11.62718 | 6659 ft | 250 kts | 203° |
| 2026-05-06 19:53 | 49.74124 | 11.61662 | 6307 ft | 260 kts | 203° |
| 2026-05-06 19:53 | 49.72453 | 11.60574 | 5974 ft | 264 kts | 203° |
| 2026-05-06 19:53 | 49.70756 | 11.59470 | 5587 ft | 265 kts | 203° |
| 2026-05-06 19:53 | 49.69055 | 11.58361 | 5189 ft | 266 kts | 203° |
| 2026-05-06 19:54 | 49.67356 | 11.57249 | 4796 ft | 265 kts | 203° |
| 2026-05-06 19:54 | 49.65659 | 11.56137 | 4419 ft | 265 kts | 203° |
| 2026-05-06 19:54 | 49.63982 | 11.55036 | 4038 ft | 265 kts | 203° |
| 2026-05-06 19:54 | 49.62290 | 11.53925 | 3663 ft | 264 kts | 203° |
| 2026-05-06 19:55 | 49.60606 | 11.52818 | 3383 ft | 261 kts | 203° |
| 2026-05-06 19:55 | 49.58956 | 11.51731 | 3259 ft | 255 kts | 203° |
| 2026-05-06 19:55 | 49.57357 | 11.50680 | 3206 ft | 252 kts | 203° |
| 2026-05-06 19:55 | 49.55757 | 11.49629 | 3180 ft | 249 kts | 203° |
| 2026-05-06 19:56 | 49.54165 | 11.48585 | 3170 ft | 248 kts | 203° |
| 2026-05-06 19:56 | 49.52586 | 11.47549 | 3161 ft | 247 kts | 203° |
| 2026-05-06 19:56 | 49.51005 | 11.46512 | 3156 ft | 246 kts | 203° |
| 2026-05-06 19:56 | 49.49432 | 11.45480 | 3158 ft | 246 kts | 203° |
| 2026-05-06 19:57 | 49.48062 | 11.44052 | 3156 ft | 235 kts | 231° |
| 2026-05-06 19:57 | 49.47127 | 11.42035 | 3150 ft | 229 kts | 243° |
| 2026-05-06 19:57 | 49.46881 | 11.39763 | 3146 ft | 210 kts | 283° |
| 2026-05-06 19:57 | 49.47225 | 11.37699 | 3152 ft | 200 kts | 273° |
| 2026-05-06 19:58 | 49.47216 | 11.35475 | 3161 ft | 221 kts | 272° |
| 2026-05-06 19:58 | 49.47349 | 11.33052 | 3166 ft | 232 kts | 278° |
| 2026-05-06 19:58 | 49.47621 | 11.30580 | 3163 ft | 235 kts | 283° |
| 2026-05-06 19:58 | 49.47943 | 11.28091 | 3160 ft | 239 kts | 280° |
| 2026-05-06 19:59 | 49.48196 | 11.25615 | 3125 ft | 225 kts | 279° |
| 2026-05-06 19:59 | 49.48408 | 11.23271 | 2813 ft | 218 kts | 279° |
| 2026-05-06 19:59 | 49.48608 | 11.20997 | 2510 ft | 210 kts | 279° |
| 2026-05-06 19:59 | 49.48791 | 11.18903 | 2254 ft | 186 kts | 279° |
| 2026-05-06 20:00 | 49.48974 | 11.17058 | 1987 ft | 165 kts | 280° |
| 2026-05-06 20:00 | 49.49132 | 11.15447 | 1778 ft | 141 kts | 279° |
| 2026-05-06 20:00 | 49.49268 | 11.14048 | 1582 ft | 125 kts | 280° |
| 2026-05-06 20:00 | 49.49395 | 11.12751 | 1432 ft | 122 kts | 281° |
| 2026-05-06 20:01 | 49.49517 | 11.11422 | 1307 ft | 124 kts | 278° |
| 2026-05-06 20:01 | 49.49637 | 11.10138 | 1142 ft | 121 kts | 280° |
| 2026-05-06 20:01 | 49.49760 | 11.08900 | 1040 ft | 109 kts | 280° |
| 2026-05-06 20:01 | 49.49865 | 11.07865 | 1024 ft | 86 kts | 278° |
| 2026-05-06 20:02 | 49.49937 | 11.07120 | 1019 ft | 31 kts | 277° |
| 2026-05-06 20:02 | 49.49854 | 11.07029 | 1017 ft | 22 kts | 157° |
| 2026-05-06 20:02 | 49.49813 | 11.07054 | 1016 ft | 5 kts | 159° |
| 2026-05-06 20:02 | 49.49804 | 11.07059 | 1016 ft | 0 kts | 159° |
| 2026-05-06 20:03 | 49.49801 | 11.07061 | 1016 ft | 1 kts | 160° |
| 2026-05-06 20:03 | 49.49794 | 11.07066 | 1016 ft | 5 kts | 159° |
| 2026-05-06 20:03 | 49.49745 | 11.07128 | 1017 ft | 14 kts | 106° |
| 2026-05-06 20:03 | 49.49670 | 11.07226 | 1019 ft | 20 kts | 188° |
| 2026-05-06 20:04 | 49.49552 | 11.07201 | 1022 ft | 12 kts | 187° |
| 2026-05-06 20:04 | 49.49506 | 11.07119 | 1022 ft | 15 kts | 279° |
| 2026-05-06 20:04 | 49.49523 | 11.06953 | 1022 ft | 8 kts | 279° |
| 2026-05-06 20:04 | 49.49464 | 11.06910 | 1022 ft | 8 kts | 189° |
| 2026-05-06 20:05 | 49.49437 | 11.06877 | 1022 ft | 1 kts | 278° |
| 2026-05-06 20:05 | 49.49437 | 11.06872 | 1022 ft | 0 kts | 278° |